createdAt,value
2022-09-20T00:01:42.595Z,98092.28
2022-09-20T00:04:10.282Z,98101.19
2022-09-20T00:06:37.225Z,98102.87
2022-09-20T00:09:05.555Z,98099.44
2022-09-20T00:11:34.654Z,98105.53
2022-09-20T00:14:02.752Z,98101.75
2022-09-20T00:16:32.185Z,98109.47
2022-09-20T00:19:00.584Z,98103.41
2022-09-20T00:21:29.676Z,98108.72
2022-09-20T00:23:57.789Z,98104.00
2022-09-20T00:26:26.117Z,98096.56
2022-09-20T00:28:53.188Z,98116.72
2022-09-20T00:31:20.362Z,98116.63
2022-09-20T00:34:05.853Z,98111.88
2022-09-20T00:36:32.740Z,98117.06
2022-09-20T00:39:00.512Z,98119.00
2022-09-20T00:41:27.891Z,98109.91
2022-09-20T00:43:55.222Z,98107.34
2022-09-20T00:46:30.288Z,98113.75
2022-09-20T00:49:04.403Z,98110.13
2022-09-20T00:51:35.661Z,98112.44
2022-09-20T00:54:04.121Z,98112.81
2022-09-20T00:56:36.223Z,98114.88
2022-09-20T00:59:11.917Z,98115.34
2022-09-20T01:01:38.938Z,98112.25
2022-09-20T01:04:06.223Z,98103.69
2022-09-20T01:06:33.805Z,98113.19
2022-09-20T01:09:02.692Z,98105.88
2022-09-20T01:11:31.020Z,98116.50
2022-09-20T01:13:57.930Z,98109.38
2022-09-20T01:16:25.509Z,98107.78
2022-09-20T01:18:52.944Z,98117.09
2022-09-20T01:21:20.477Z,98108.72
2022-09-20T01:24:05.754Z,98112.09
2022-09-20T01:26:32.508Z,98108.72
2022-09-20T01:29:10.145Z,98113.44
2022-09-20T01:31:42.843Z,98115.78
2022-09-20T01:34:25.187Z,98105.38
2022-09-20T01:37:10.534Z,98107.88
2022-09-20T01:39:58.924Z,98105.00
2022-09-20T01:42:34.349Z,98108.81
2022-09-20T01:45:19.132Z,98106.75
2022-09-20T01:48:10.343Z,98112.50
2022-09-20T01:51:14.683Z,98113.78
2022-09-20T01:54:03.641Z,98107.34
2022-09-20T01:56:52.558Z,98107.94
2022-09-20T01:59:38.104Z,98107.50
2022-09-20T02:02:28.916Z,98113.94
2022-09-20T02:05:14.045Z,98110.00
2022-09-20T02:08:01.055Z,98113.34
2022-09-20T02:10:53.550Z,98114.72
2022-09-20T02:13:33.914Z,98110.34
2022-09-20T02:16:00.693Z,98109.91
2022-09-20T02:18:48.197Z,98115.16
2022-09-20T02:21:26.006Z,98120.16
2022-09-20T02:24:40.871Z,98117.06
2022-09-20T02:27:26.068Z,98110.75
2022-09-20T02:30:05.101Z,98118.37
2022-09-20T02:32:53.387Z,98121.06
2022-09-20T02:35:29.169Z,98121.50
2022-09-20T02:38:12.134Z,98119.22
2022-09-20T02:40:59.176Z,98114.16
2022-09-20T02:43:44.375Z,98112.91
2022-09-20T02:46:26.395Z,98116.03
2022-09-20T02:49:02.105Z,98117.94
2022-09-20T02:51:40.013Z,98116.25
2022-09-20T02:54:13.991Z,98118.47
2022-09-20T02:57:00.764Z,98117.81
2022-09-20T02:59:47.347Z,98116.34
2022-09-20T03:02:20.133Z,98120.91
2022-09-20T03:05:02.279Z,98129.03
2022-09-20T03:07:47.673Z,98116.13
2022-09-20T03:10:26.662Z,98118.47
2022-09-20T03:13:11.269Z,98120.16
2022-09-20T03:15:52.424Z,98117.28
2022-09-20T03:18:29.921Z,98118.56
2022-09-20T03:21:32.175Z,98126.56
2022-09-20T03:24:34.735Z,98122.00
2022-09-20T03:27:37.101Z,98119.78
2022-09-20T03:30:28.987Z,98118.28
2022-09-20T03:33:19.783Z,98127.19
2022-09-20T03:36:02.080Z,98124.44
2022-09-20T03:38:42.631Z,98124.75
2022-09-20T03:41:34.269Z,98124.78
2022-09-20T03:44:39.478Z,98130.81
2022-09-20T03:47:28.139Z,98123.69
2022-09-20T03:50:11.423Z,98122.34
2022-09-20T03:52:44.842Z,98121.44
2022-09-20T03:55:17.899Z,98120.91
2022-09-20T03:57:44.736Z,98114.00
2022-09-20T04:00:23.315Z,98115.97
2022-09-20T04:02:56.180Z,98116.81
2022-09-20T04:06:05.094Z,98106.91
2022-09-20T04:08:57.016Z,98109.47
2022-09-20T04:11:30.367Z,98115.47
2022-09-20T04:14:10.613Z,98105.75
2022-09-20T04:16:46.570Z,98114.78
2022-09-20T04:19:33.228Z,98114.34
2022-09-20T04:22:01.354Z,98121.47
2022-09-20T04:24:33.997Z,98120.63
2022-09-20T04:27:02.706Z,98117.97
2022-09-20T04:29:37.096Z,98118.22
2022-09-20T04:32:25.857Z,98119.88
2022-09-20T04:35:25.147Z,98126.84
2022-09-20T04:37:52.313Z,98125.56
2022-09-20T04:40:37.925Z,98130.25
2022-09-20T04:43:17.680Z,98127.00
2022-09-20T04:46:06.938Z,98138.12
2022-09-20T04:48:40.668Z,98141.81
2022-09-20T04:51:52.088Z,98140.87
2022-09-20T04:54:51.769Z,98141.66
2022-09-20T04:57:41.685Z,98137.28
2022-09-20T05:00:16.063Z,98139.72
2022-09-20T05:03:01.671Z,98143.81
2022-09-20T05:06:03.359Z,98139.06
2022-09-20T05:08:49.439Z,98145.12
2022-09-20T05:11:42.517Z,98150.06
2022-09-20T05:14:37.890Z,98156.59
2022-09-20T05:17:16.112Z,98140.19
2022-09-20T05:19:56.188Z,98144.31
2022-09-20T05:23:04.906Z,98150.22
2022-09-20T05:25:43.223Z,98148.50
2022-09-20T05:28:16.533Z,98145.06
2022-09-20T05:31:03.631Z,98160.16
2022-09-20T05:34:00.751Z,98141.81
2022-09-20T05:36:50.874Z,98152.09
2022-09-20T05:39:44.988Z,98163.94
2022-09-20T05:42:15.171Z,98155.81
2022-09-20T05:44:55.291Z,98157.13
2022-09-20T05:47:43.505Z,98161.59
2022-09-20T05:50:28.369Z,98166.63
2022-09-20T05:53:02.486Z,98168.03
2022-09-20T05:55:43.696Z,98169.38
2022-09-20T05:58:44.644Z,98175.34
2022-09-20T06:01:31.778Z,98174.25
2022-09-20T06:04:21.662Z,98168.78
2022-09-20T06:06:56.068Z,98173.72
2022-09-20T06:09:58.172Z,98176.22
2022-09-20T06:12:58.210Z,98181.19
2022-09-20T06:15:37.570Z,98186.00
2022-09-20T06:18:19.330Z,98185.34
2022-09-20T06:21:01.997Z,98188.25
2022-09-20T06:23:29.792Z,98188.97
2022-09-20T06:26:00.364Z,98188.09
2022-09-20T06:28:30.989Z,98186.81
2022-09-20T06:30:58.294Z,98188.22
2022-09-20T06:33:27.017Z,98194.78
2022-09-20T06:35:59.302Z,98186.81
2022-09-20T06:39:26.299Z,98185.66
2022-09-20T06:41:54.348Z,98181.66
2022-09-20T06:44:21.426Z,98177.94
2022-09-20T06:46:48.289Z,98169.09
2022-09-20T06:49:16.262Z,98170.94
2022-09-20T06:51:43.688Z,98175.59
2022-09-20T06:54:17.331Z,98173.78
2022-09-20T06:56:46.839Z,98183.34
2022-09-20T06:59:14.449Z,98176.41
2022-09-20T07:01:41.677Z,98190.03
2022-09-20T07:04:09.890Z,98185.94
2022-09-20T07:06:37.114Z,98185.28
2022-09-20T07:09:05.037Z,98192.78
2022-09-20T07:11:36.258Z,98194.41
2022-09-20T07:14:25.729Z,98204.16
2022-09-20T07:16:53.435Z,98211.72
2022-09-20T07:19:32.242Z,98205.75
2022-09-20T07:24:45.112Z,98205.16
2022-09-20T07:27:12.201Z,98206.81
2022-09-20T07:29:41.085Z,98219.44
2022-09-20T07:32:15.533Z,98216.50
2022-09-20T07:34:42.881Z,98215.31
2022-09-20T07:37:09.911Z,98224.03
2022-09-20T07:39:36.732Z,98229.84
2022-09-20T07:42:06.448Z,98233.94
2022-09-20T07:44:33.408Z,98234.78
2022-09-20T07:47:00.990Z,98234.16
2022-09-20T07:49:30.536Z,98237.88
2022-09-20T07:51:57.703Z,98227.25
2022-09-20T07:54:24.621Z,98237.44
2022-09-20T07:56:51.571Z,98229.69
2022-09-20T07:59:18.549Z,98236.75
2022-09-20T08:01:45.467Z,98239.66
2022-09-20T08:04:12.373Z,98244.12
2022-09-20T08:06:41.169Z,98252.38
2022-09-20T08:09:11.203Z,98240.06
2022-09-20T08:11:39.764Z,98248.16
2022-09-20T08:14:08.889Z,98253.06
2022-09-20T08:16:41.303Z,98233.91
2022-09-20T08:19:08.528Z,98253.41
2022-09-20T08:21:36.291Z,98247.97
2022-09-20T08:24:04.191Z,98250.06
2022-09-20T08:26:35.953Z,98251.19
2022-09-20T08:29:03.303Z,98249.66
2022-09-20T08:31:37.063Z,98252.59
2022-09-20T08:34:06.785Z,98252.12
2022-09-20T08:36:36.987Z,98246.88
2022-09-20T08:42:13.642Z,98242.00
2022-09-20T08:45:01.593Z,98240.75
2022-09-20T08:47:31.891Z,98243.97
2022-09-20T08:49:59.765Z,98243.38
2022-09-20T08:52:36.996Z,98247.09
2022-09-20T08:55:23.538Z,98241.97
2022-09-20T08:57:53.660Z,98243.44
2022-09-20T09:00:24.855Z,98250.66
2022-09-20T09:03:13.159Z,98246.88
2022-09-20T09:05:52.898Z,98244.97
2022-09-20T09:08:22.546Z,98238.44
2022-09-20T09:10:54.979Z,98237.00
2022-09-20T09:13:30.733Z,98233.97
2022-09-20T09:16:03.548Z,98233.00
2022-09-20T09:18:36.885Z,98234.81
2022-09-20T09:21:05.243Z,98234.41
2022-09-20T09:23:41.614Z,98231.25
2022-09-20T09:26:29.639Z,98234.69
2022-09-20T09:29:19.345Z,98236.78
2022-09-20T09:31:55.504Z,98235.59
2022-09-20T09:34:24.310Z,98228.62
2022-09-20T09:37:00.125Z,98235.69
2022-09-20T09:39:36.016Z,98239.84
2022-09-20T09:42:23.202Z,98240.78
2022-09-20T09:44:51.062Z,98231.88
2022-09-20T09:47:28.662Z,98238.00
2022-09-20T09:50:07.415Z,98241.41
2022-09-20T09:52:36.902Z,98231.78
2022-09-20T09:55:11.152Z,98228.06
2022-09-20T09:58:13.315Z,98233.41
2022-09-20T10:00:46.642Z,98233.78
2022-09-20T10:03:40.569Z,98242.59
2022-09-20T10:06:22.555Z,98242.06
2022-09-20T10:09:13.849Z,98233.69
2022-09-20T10:11:58.627Z,98234.06
2022-09-20T10:14:29.882Z,98223.13
2022-09-20T10:17:08.811Z,98235.91
2022-09-20T10:19:57.361Z,98228.13
2022-09-20T10:22:39.095Z,98227.66
2022-09-20T10:25:24.892Z,98226.34
2022-09-20T10:28:06.639Z,98223.09
2022-09-20T10:31:15.644Z,98215.84
2022-09-20T10:34:10.438Z,98216.41
2022-09-20T10:36:47.478Z,98204.59
2022-09-20T10:39:35.084Z,98216.19
2022-09-20T10:42:23.231Z,98213.28
2022-09-20T10:44:55.719Z,98224.87
2022-09-20T10:47:29.038Z,98228.78
2022-09-20T10:50:23.203Z,98227.19
2022-09-20T10:53:13.282Z,98227.41
2022-09-20T10:56:19.118Z,98226.00
2022-09-20T10:58:52.529Z,98227.28
2022-09-20T11:01:22.778Z,98228.44
2022-09-20T11:04:14.429Z,98231.44
2022-09-20T11:07:02.931Z,98231.75
2022-09-20T11:09:59.848Z,98234.25
2022-09-20T11:12:44.508Z,98233.94
2022-09-20T11:15:31.180Z,98235.91
2022-09-20T11:18:13.219Z,98232.19
2022-09-20T11:20:46.781Z,98232.06
2022-09-20T11:23:21.316Z,98228.13
2022-09-20T11:26:02.571Z,98224.81
2022-09-20T11:28:41.561Z,98224.84
2022-09-20T11:31:11.334Z,98225.94
2022-09-20T11:33:49.461Z,98212.50
2022-09-20T11:36:41.373Z,98208.41
2022-09-20T11:39:42.944Z,98201.81
2022-09-20T11:42:20.523Z,98201.31
2022-09-20T11:44:47.678Z,98194.50
2022-09-20T11:47:53.283Z,98195.78
2022-09-20T11:50:38.626Z,98178.22
2022-09-20T11:53:36.592Z,98185.44
2022-09-20T11:56:11.166Z,98179.16
2022-09-20T11:59:05.899Z,98177.84
2022-09-20T12:01:37.036Z,98183.84
2022-09-20T12:04:32.860Z,98186.63
2022-09-20T12:07:26.665Z,98190.22
2022-09-20T12:09:57.109Z,98189.16
2022-09-20T12:12:37.557Z,98185.81
2022-09-20T12:15:27.555Z,98200.13
2022-09-20T12:17:57.442Z,98199.03
2022-09-20T12:20:36.253Z,98204.50
2022-09-20T12:23:42.935Z,98209.09
2022-09-20T12:26:23.141Z,98203.97
2022-09-20T12:28:52.084Z,98206.00
2022-09-20T12:31:19.223Z,98212.47
2022-09-20T12:34:03.888Z,98222.63
2022-09-20T12:36:36.417Z,98214.31
2022-09-20T12:39:16.386Z,98208.50
2022-09-20T12:41:51.707Z,98210.47
2022-09-20T12:44:49.676Z,98197.84
2022-09-20T12:47:21.453Z,98206.16
2022-09-20T12:50:06.848Z,98192.19
2022-09-20T12:53:00.474Z,98190.12
2022-09-20T12:55:30.128Z,98192.16
2022-09-20T12:58:04.148Z,98186.81
2022-09-20T13:00:48.039Z,98185.88
2022-09-20T13:03:23.976Z,98178.25
2022-09-20T13:06:19.993Z,98171.97
2022-09-20T13:08:52.881Z,98176.84
2022-09-20T13:11:40.811Z,98174.97
2022-09-20T13:14:23.049Z,98159.31
2022-09-20T13:16:53.080Z,98167.00
2022-09-20T13:19:28.844Z,98167.28
2022-09-20T13:22:03.987Z,98165.97
2022-09-20T13:24:38.204Z,98166.13
2022-09-20T13:27:21.548Z,98170.06
2022-09-20T13:29:48.641Z,98167.47
2022-09-20T13:32:25.722Z,98165.25
2022-09-20T13:35:10.870Z,98161.97
2022-09-20T13:37:38.803Z,98164.37
2022-09-20T13:40:07.346Z,98171.72
2022-09-20T13:42:35.900Z,98159.91
2022-09-20T13:45:04.458Z,98157.06
2022-09-20T13:47:32.441Z,98152.38
2022-09-20T13:50:23.882Z,98152.81
2022-09-20T13:52:55.516Z,98153.91
2022-09-20T13:55:28.803Z,98157.75
2022-09-20T13:57:57.691Z,98157.53
2022-09-20T14:00:28.027Z,98161.97
2022-09-20T14:02:55.270Z,98162.06
2022-09-20T14:05:25.385Z,98167.28
2022-09-20T14:07:52.689Z,98171.78
2022-09-20T14:10:46.077Z,98164.03
2022-09-20T14:13:16.722Z,98179.72
2022-09-20T14:15:48.193Z,98197.72
2022-09-20T14:18:17.712Z,98202.19
2022-09-20T14:20:45.335Z,98209.94
2022-09-20T14:23:26.021Z,98219.09
2022-09-20T14:26:20.980Z,98203.03
2022-09-20T14:28:48.165Z,98196.25
2022-09-20T14:31:17.681Z,98194.06
2022-09-20T14:33:50.719Z,98196.94
2022-09-20T14:36:23.447Z,98192.31
2022-09-20T14:38:56.984Z,98199.72
2022-09-20T14:41:34.151Z,98196.09
2022-09-20T14:44:05.739Z,98201.28
2022-09-20T14:46:38.906Z,98198.81
2022-09-20T14:49:26.852Z,98201.28
2022-09-20T14:51:54.123Z,98199.94
2022-09-20T14:54:31.021Z,98201.69
2022-09-20T14:56:58.962Z,98206.31
2022-09-20T14:59:27.407Z,98200.56
2022-09-20T15:01:57.955Z,98200.78
2022-09-20T15:04:27.550Z,98208.75
2022-09-20T15:06:55.599Z,98205.97
2022-09-20T15:09:22.863Z,98199.91
2022-09-20T15:12:25.516Z,98210.78
2022-09-20T15:14:52.469Z,98207.12
2022-09-20T15:17:21.197Z,98211.31
2022-09-20T15:19:48.941Z,98212.16
2022-09-20T15:22:16.230Z,98204.69
2022-09-20T15:24:43.183Z,98196.22
2022-09-20T15:27:12.312Z,98198.97
2022-09-20T15:29:39.301Z,98187.25
2022-09-20T15:32:07.072Z,98192.13
2022-09-20T15:34:33.978Z,98194.53
2022-09-20T15:37:00.814Z,98192.63
2022-09-20T15:39:28.158Z,98195.69
2022-09-20T15:41:55.039Z,98202.87
2022-09-20T15:44:22.270Z,98195.22
2022-09-20T15:46:51.142Z,98193.50
2022-09-20T15:49:18.081Z,98195.81
2022-09-20T15:51:46.463Z,98197.38
2022-09-20T15:54:14.280Z,98194.97
2022-09-20T15:56:41.694Z,98198.28
2022-09-20T15:59:10.222Z,98197.38
2022-09-20T16:01:43.824Z,98193.84
2022-09-20T16:04:12.751Z,98197.78
2022-09-20T16:06:41.122Z,98195.47
2022-09-20T16:09:08.376Z,98196.53
2022-09-20T16:11:35.896Z,98199.12
2022-09-20T16:14:03.158Z,98202.81
2022-09-20T16:16:30.963Z,98198.22
2022-09-20T16:19:16.415Z,98205.47
2022-09-20T16:21:47.134Z,98212.31
2022-09-20T16:24:14.166Z,98211.91
2022-09-20T16:26:41.167Z,98208.13
2022-09-20T16:29:08.176Z,98220.19
2022-09-20T16:31:48.909Z,98222.75
2022-09-20T16:34:17.899Z,98224.91
2022-09-20T16:36:45.967Z,98228.09
2022-09-20T16:39:14.533Z,98227.00
2022-09-20T16:41:41.747Z,98232.78
2022-09-20T16:44:09.185Z,98228.78
2022-09-20T16:46:39.449Z,98233.44
2022-09-20T16:49:09.597Z,98241.13
2022-09-20T16:51:38.335Z,98242.81
2022-09-20T16:54:07.524Z,98250.00
2022-09-20T16:56:35.631Z,98251.00
2022-09-20T16:59:03.252Z,98254.94
2022-09-20T17:01:31.705Z,98246.16
2022-09-20T17:03:59.151Z,98249.00
2022-09-20T17:06:27.000Z,98253.03
2022-09-20T17:08:58.815Z,98253.88
2022-09-20T17:11:28.532Z,98254.94
2022-09-20T17:13:56.135Z,98251.03
2022-09-20T17:16:30.074Z,98250.88
2022-09-20T17:19:02.034Z,98264.50
2022-09-20T17:21:30.300Z,98267.16
2022-09-20T17:23:58.926Z,98265.94
2022-09-20T17:26:40.406Z,98267.03
2022-09-20T17:29:10.460Z,98265.31
2022-09-20T17:31:39.513Z,98273.72
2022-09-20T17:34:08.660Z,98261.38
2022-09-20T17:36:39.879Z,98268.47
2022-09-20T17:39:07.446Z,98271.31
2022-09-20T17:41:34.273Z,98273.78
2022-09-20T17:44:08.326Z,98269.75
2022-09-20T17:46:37.325Z,98275.75
2022-09-20T17:49:06.959Z,98277.97
2022-09-20T17:51:43.405Z,98279.53
2022-09-20T17:54:14.317Z,98287.78
2022-09-20T17:56:48.931Z,98286.44
2022-09-20T17:59:16.811Z,98291.69
2022-09-20T18:01:45.492Z,98290.84
2022-09-20T18:04:12.686Z,98293.09
2022-09-20T18:06:47.467Z,98298.03
2022-09-20T18:09:16.189Z,98299.88
2022-09-20T18:11:49.759Z,98301.53
2022-09-20T18:14:22.813Z,98302.22
2022-09-20T18:16:53.170Z,98298.63
2022-09-20T18:19:21.632Z,98304.22
2022-09-20T18:21:48.915Z,98302.13
2022-09-20T18:24:15.850Z,98305.25
2022-09-20T18:26:42.711Z,98308.31
2022-09-20T18:29:12.497Z,98312.09
2022-09-20T18:31:46.323Z,98305.81
2022-09-20T18:34:18.589Z,98306.22
2022-09-20T18:36:53.240Z,98304.97
2022-09-20T18:39:24.080Z,98312.69
2022-09-20T18:41:51.088Z,98307.44
2022-09-20T18:44:20.980Z,98314.16
2022-09-20T18:46:48.365Z,98315.66
2022-09-20T18:49:17.104Z,98309.84
2022-09-20T18:51:44.924Z,98323.81
2022-09-20T18:54:12.238Z,98322.09
2022-09-20T18:56:43.589Z,98325.25
2022-09-20T18:59:18.583Z,98326.06
2022-09-20T19:01:54.450Z,98330.25
2022-09-20T19:04:52.171Z,98325.97
2022-09-20T19:07:27.893Z,98335.50
2022-09-20T19:10:06.768Z,98327.25
2022-09-20T19:12:50.431Z,98336.06
2022-09-20T19:15:40.252Z,98331.84
2022-09-20T19:18:25.483Z,98335.50
2022-09-20T19:20:59.707Z,98346.37
2022-09-20T19:24:03.554Z,98335.22
2022-09-20T19:26:38.227Z,98331.31
2022-09-20T19:29:16.179Z,98338.94
2022-09-20T19:31:43.313Z,98337.28
2022-09-20T19:34:18.435Z,98331.59
2022-09-20T19:36:59.636Z,98338.28
2022-09-20T19:39:48.029Z,98335.16
2022-09-20T19:42:24.999Z,98342.81
2022-09-20T19:45:16.571Z,98345.47
2022-09-20T19:47:58.959Z,98348.25
2022-09-20T19:50:39.018Z,98343.00
2022-09-20T19:53:06.167Z,98341.81
2022-09-20T19:55:35.251Z,98344.84
2022-09-20T19:58:02.590Z,98344.03
2022-09-20T20:00:31.572Z,98336.44
2022-09-20T20:02:58.879Z,98350.56
2022-09-20T20:05:27.755Z,98350.75
2022-09-20T20:08:18.121Z,98351.75
2022-09-20T20:11:42.158Z,98344.16
2022-09-20T20:14:24.412Z,98357.34
2022-09-20T20:17:05.420Z,98357.13
2022-09-20T20:19:37.238Z,98355.47
2022-09-20T20:22:28.570Z,98359.03
2022-09-20T20:24:56.860Z,98367.25
2022-09-20T20:27:25.442Z,98359.25
2022-09-20T20:29:52.455Z,98363.31
2022-09-20T20:32:19.343Z,98358.47
2022-09-20T20:34:47.046Z,98370.09
2022-09-20T20:37:14.193Z,98366.12
2022-09-20T20:39:41.071Z,98371.41
2022-09-20T20:42:12.088Z,98369.06
2022-09-20T20:44:39.015Z,98365.88
2022-09-20T20:47:07.300Z,98374.66
2022-09-20T20:49:34.300Z,98374.88
2022-09-20T20:52:04.924Z,98369.37
2022-09-20T20:54:32.768Z,98371.88
2022-09-20T20:56:59.803Z,98366.12
2022-09-20T20:59:27.121Z,98362.09
2022-09-20T21:01:54.216Z,98376.41
2022-09-20T21:04:21.872Z,98372.88
2022-09-20T21:06:50.274Z,98383.81
2022-09-20T21:09:17.213Z,98381.25
2022-09-20T21:11:44.554Z,98384.25
2022-09-20T21:14:12.847Z,98379.56
2022-09-20T21:16:45.213Z,98389.88
2022-09-20T21:19:15.755Z,98383.94
2022-09-20T21:21:44.596Z,98392.16
2022-09-20T21:24:14.893Z,98389.34
2022-09-20T21:26:41.756Z,98385.91
2022-09-20T21:29:11.105Z,98383.44
2022-09-20T21:31:39.712Z,98391.16
2022-09-20T21:34:08.095Z,98389.53
2022-09-20T21:36:35.959Z,98393.25
2022-09-20T21:39:03.148Z,98396.34
2022-09-20T21:41:32.229Z,98396.41
2022-09-20T21:44:00.687Z,98398.56
2022-09-20T21:46:29.974Z,98396.53
2022-09-20T21:48:58.458Z,98406.28
2022-09-20T21:51:26.440Z,98405.12
2022-09-20T21:53:58.181Z,98405.78
2022-09-20T21:56:27.712Z,98408.44
2022-09-20T21:58:55.053Z,98404.69
2022-09-20T22:01:24.006Z,98413.94
2022-09-20T22:03:59.100Z,98412.47
2022-09-20T22:06:33.978Z,98404.78
2022-09-20T22:09:08.950Z,98399.84
2022-09-20T22:11:41.043Z,98416.41
2022-09-20T22:14:08.881Z,98408.31
2022-09-20T22:16:38.223Z,98413.94
2022-09-20T22:19:07.199Z,98412.19
2022-09-20T22:21:36.920Z,98412.16
2022-09-20T22:24:09.203Z,98409.97
2022-09-20T22:26:38.512Z,98418.91
2022-09-20T22:29:06.648Z,98411.56
2022-09-20T22:31:36.138Z,98400.06
2022-09-20T22:34:05.792Z,98393.13
2022-09-20T22:36:37.459Z,98397.50
2022-09-20T22:39:07.452Z,98390.28
2022-09-20T22:41:35.222Z,98399.31
2022-09-20T22:44:02.486Z,98384.91
2022-09-20T22:46:30.570Z,98395.72
2022-09-20T22:48:57.702Z,98394.28
2022-09-20T22:51:31.536Z,98396.91
2022-09-20T22:53:58.436Z,98405.28
2022-09-20T22:56:29.589Z,98401.06
2022-09-20T22:59:00.764Z,98395.31
2022-09-20T23:01:30.139Z,98398.22
2022-09-20T23:04:01.095Z,98399.75
2022-09-20T23:06:31.653Z,98408.41
2022-09-20T23:09:00.618Z,98410.59
2022-09-20T23:11:28.431Z,98407.19
2022-09-20T23:13:57.363Z,98414.56
2022-09-20T23:16:30.955Z,98406.81
2022-09-20T23:18:59.566Z,98416.13
2022-09-20T23:21:26.935Z,98422.31
2022-09-20T23:24:01.417Z,98425.94
2022-09-20T23:26:30.558Z,98424.13
2022-09-20T23:28:59.824Z,98424.19
2022-09-20T23:31:27.860Z,98425.63
2022-09-20T23:33:59.891Z,98426.06
2022-09-20T23:36:28.974Z,98427.81
2022-09-20T23:38:57.125Z,98419.09
2022-09-20T23:41:25.394Z,98422.09
2022-09-20T23:43:52.556Z,98417.38
2022-09-20T23:46:21.411Z,98423.16
2022-09-20T23:48:50.313Z,98426.00
2022-09-20T23:51:19.885Z,98430.44
2022-09-20T23:53:46.730Z,98428.94
2022-09-20T23:56:13.710Z,98424.78
2022-09-20T23:58:42.182Z,98430.75
